Hovedside
METAR-TAF:

METAR-TAF

Lufthavner :

Rønne, Danmark

Bornholms lufthavn

breddegrad: 55-04N, lengdegrad: 014-45E, høyde over havet: 16 m

Gjeldene værobservasjon

Denne rapporten ble laget for 28 minutter siden, klokken 13:20 UTC
Vind 11 kt fra Øst-nordøst
Temperatur -2°C
Luftfuktighet 63%
Trykk 1033 hPa
Sikt 10 km eller mer
lett snø

METAR: EKRN 251320Z AUTO 06011KT 9999NDV -SN OVC022/// M02/M08 Q1033 RESN R99/420395

Tid: 14:48 (13:48 UTC)

Varsel

Denne rapporten ble laget for 2 timer og 28 minutter siden, klokken 11:20 UTC
Varsel gyldig fra 25. klokken 12 UTC til 25. klokken 21 UTC
Vind 15 kt fra Nordøst
Sikt: 9000 m
Spredte skyer i en høyde av 2000 ft, Bygeskyer.
Brutte skyer i en høyde av 2500 ft
lette snøbyger
Midlertidig
fra 25. klokken 12 UTC til 25. klokken 21 UTC
Sikt: 0500 m
i en høyde av 500 ft
snøbyger, lett hagl eller graupel, lavt snøfokk

TAF: EKRN 251120Z 2512/2521 04015KT 9000 -SHSN SCT020CB BKN025 TEMPO 2512/2521 0500 SHSNGS DRSN VV005

Værobservasjoner og værvarsel for over 4000 flyplasser (METAR- og TAF-rapporter).

Tilgjengelige stasjoner er representert av de røde og gule prikkene på kartet.

Hold musepekeren over prikken for å se navnet på stasjonen.

Klikk så for å se værobservasjoner og -varsler.

For å forandre kartet kan du klikke på den grønne knappen med svart kryss for å zoome inn, på den grønne knappen med strek for å zoome ut, eller på de grønne pilene for å se tilstøtende kart.


METAR-TAF: